Time;durP1;ratioP1;P1;durP2;ratioP2;P2;SDS_P1;SDS_P2;PMS_P1;PMS_P2;Temp;Humidity;BMP_temperature;BMP_pressure;BME280_temperature;BME280_humidity;BME280_pressure;Samples;Min_cycle;Max_cycle;Signal;HPM_P1;HPM_P2
2021/12/24 00:01:03;;;;;;;7.30;3.05;;;;;;;-9.31;61.29;99087.94;5070688;28;20029;-66
2021/12/24 00:03:29;;;;;;;5.45;3.17;;;;;;;-9.31;61.38;99087.94;5070496;28;20041;-71
2021/12/24 00:05:55;;;;;;;6.38;2.85;;;;;;;-9.28;60.73;99095.69;5070152;28;20113;-71
2021/12/24 00:08:21;;;;;;;6.88;2.97;;;;;;;-9.22;60.91;99100.78;5070933;28;20039;-70
2021/12/24 00:10:50;;;;;;;9.00;3.42;;;;;;;-9.28;60.85;99091.38;5073585;28;20427;-68
2021/12/24 00:13:18;;;;;;;6.25;3.38;;;;;;;-9.37;61.00;99075.91;5073879;28;20032;-68
2021/12/24 00:37:09;;;;;;;5.70;3.28;;;;;;;-9.25;60.98;99069.72;5073276;28;20028;-66
2021/12/24 00:39:43;;;;;;;7.68;3.20;;;;;;;-9.25;60.98;99064.53;5073289;28;20383;-67
2021/12/24 00:42:09;;;;;;;7.70;2.75;;;;;;;-9.31;61.45;99056.84;5073828;28;20107;-66
2021/12/24 00:44:34;;;;;;;7.43;3.35;;;;;;;-9.36;60.89;99043.91;5073194;28;20136;-66
2021/12/24 00:47:01;;;;;;;6.18;2.83;;;;;;;-9.23;61.06;99057.59;5073362;28;20486;-66
2021/12/24 00:49:27;;;;;;;7.45;2.95;;;;;;;-9.17;61.24;99051.47;5073580;28;20500;-67
2021/12/24 00:52:07;;;;;;;5.88;3.03;;;;;;;-9.32;61.04;99017.06;5073435;28;20111;-66
2021/12/24 00:55:09;;;;;;;5.75;3.30;;;;;;;-9.09;61.05;99049.63;5073152;28;20115;-67
2021/12/24 00:57:26;;;;;;;7.30;3.33;;;;;;;-9.10;61.03;99025.44;5070979;28;20041;-66
2021/12/24 00:59:51;;;;;;;5.47;2.22;;;;;;;-8.96;60.67;99040.81;5073979;28;20028;-67
2021/12/24 01:02:17;;;;;;;5.45;3.10;;;;;;;-9.01;60.86;99028.78;5073296;28;20028;-66
2021/12/24 01:04:42;;;;;;;5.78;3.13;;;;;;;-9.04;60.64;99015.84;5072466;28;20111;-66
2021/12/24 01:07:09;;;;;;;7.53;3.40;;;;;;;-9.05;60.78;99025.38;5072573;28;20024;-66
2021/12/24 01:09:35;;;;;;;7.10;3.08;;;;;;;-9.09;60.99;99027.16;5073511;28;20104;-67
2021/12/24 01:12:01;;;;;;;5.55;3.13;;;;;;;-9.12;60.92;99024.63;5073233;28;20036;-67
2021/12/24 01:14:28;;;;;;;5.05;2.80;;;;;;;-9.15;60.61;99023.78;5072542;28;20049;-67
2021/12/24 01:19:46;;;;;;;6.90;2.78;;;;;;;-9.21;61.13;99013.50;5062025;28;20074;-66
2021/12/24 01:38:19;;;;;;;6.90;3.40;;;;;;;-9.46;61.42;98988.75;5072464;28;20071;-66
2021/12/24 01:41:04;;;;;;;7.55;3.38;;;;;;;-9.47;61.54;98981.84;5072662;28;20060;-66
2021/12/24 01:43:30;;;;;;;7.03;3.30;;;;;;;-9.24;61.52;98991.94;5071922;28;20185;-67
2021/12/24 01:45:57;;;;;;;6.80;2.97;;;;;;;-9.37;61.31;98967.03;5072060;28;20123;-68
2021/12/24 01:48:23;;;;;;;6.60;2.78;;;;;;;-9.18;61.26;98993.56;5072429;28;20138;-66
2021/12/24 01:50:51;;;;;;;8.55;3.33;;;;;;;-9.23;61.17;98996.22;5071830;28;20114;-66
2021/12/24 01:53:20;;;;;;;6.38;3.15;;;;;;;-9.16;61.25;98997.00;5070435;28;20366;-67
2021/12/24 01:55:48;;;;;;;6.07;3.03;;;;;;;-9.21;61.44;98982.38;5071827;28;20040;-66
2021/12/24 01:58:19;;;;;;;5.13;3.05;;;;;;;-9.18;60.76;98979.75;5072142;28;20043;-66
2021/12/24 02:00:49;;;;;;;8.85;3.13;;;;;;;-9.18;60.59;98983.19;5071879;28;20466;-66
2021/12/24 02:03:14;;;;;;;5.63;2.88;;;;;;;-9.28;60.81;98972.09;5070252;28;20032;-66
2021/12/24 02:05:41;;;;;;;6.72;2.50;;;;;;;-9.23;61.09;98978.09;5071725;28;20377;-67
2021/12/24 02:08:08;;;;;;;6.22;3.17;;;;;;;-9.21;60.58;98979.78;5070724;28;20123;-66
2021/12/24 02:10:34;;;;;;;6.63;2.92;;;;;;;-9.29;60.92;98977.31;5071428;28;20130;-66
2021/12/24 02:13:00;;;;;;;7.35;3.50;;;;;;;-9.26;60.99;98978.13;5071235;28;20047;-67
2021/12/24 02:16:03;;;;;;;7.82;2.85;;;;;;;-9.26;61.25;98972.06;5072047;28;20052;-67
2021/12/24 02:29:21;;;;;;;7.18;3.35;;;;;;;-9.06;61.01;98960.56;5071568;28;20054;-68
2021/12/24 02:31:46;;;;;;;8.25;3.97;;;;;;;-9.04;60.69;98948.44;5070591;28;20025;-67
2021/12/24 02:34:12;;;;;;;6.10;3.13;;;;;;;-9.02;60.50;98962.22;5070944;28;20040;-69
2021/12/24 02:36:38;;;;;;;4.90;3.13;;;;;;;-8.98;60.92;98948.31;5071668;28;20335;-67
2021/12/24 02:39:05;;;;;;;8.55;3.60;;;;;;;-8.98;60.98;98948.31;5071219;28;20343;-67
2021/12/24 02:41:30;;;;;;;9.60;3.53;;;;;;;-8.98;60.63;98933.63;5071227;28;20024;-69
2021/12/24 02:43:56;;;;;;;5.85;3.13;;;;;;;-8.94;60.52;98929.25;5069862;28;20045;-68
2021/12/24 02:47:11;;;;;;;6.82;3.50;;;;;;;-8.91;60.86;98939.59;5070103;28;20150;-68
2021/12/24 02:49:13;;;;;;;9.18;3.95;;;;;;;-8.83;60.77;98936.84;5071246;28;20505;-68
2021/12/24 02:54:24;;;;;;;6.07;3.45;;;;;;;-8.72;60.59;98945.34;5071381;28;20090;-66
2021/12/24 02:56:53;;;;;;;10.20;4.15;;;;;;;-8.76;60.48;98927.25;5071001;28;20032;-68
2021/12/24 02:59:25;;;;;;;8.57;3.58;;;;;;;-8.69;60.73;98934.03;5069626;28;20463;-66
2021/12/24 03:01:51;;;;;;;8.57;3.72;;;;;;;-8.65;60.11;98925.34;5070489;28;20104;-66
2021/12/24 03:04:16;;;;;;;6.35;3.15;;;;;;;-8.65;60.27;98917.56;5071210;28;20488;-66
2021/12/24 03:06:45;;;;;;;9.88;3.75;;;;;;;-8.63;60.34;98928.75;5070473;28;20036;-67
2021/12/24 03:09:14;;;;;;;6.90;3.58;;;;;;;-8.65;60.11;98926.19;5070767;28;20065;-67
2021/12/24 03:11:39;;;;;;;7.15;3.35;;;;;;;-8.78;60.42;98893.56;5069658;28;20024;-66
2021/12/24 03:14:07;;;;;;;12.70;4.38;;;;;;;-8.57;60.36;98920.00;5071027;28;20033;-67
2021/12/24 03:16:34;;;;;;;6.82;3.33;;;;;;;-8.52;60.14;98910.41;5071057;28;20032;-68
2021/12/24 03:19:00;;;;;;;7.35;3.35;;;;;;;-8.44;60.32;98907.63;5070443;28;20089;-67
2021/12/24 03:21:32;;;;;;;8.32;3.75;;;;;;;-8.41;60.18;98903.22;5070634;28;20025;-67
2021/12/24 03:26:46;;;;;;;7.05;3.53;;;;;;;-8.44;60.45;98902.44;5070981;28;20086;-67
2021/12/24 03:29:14;;;;;;;7.88;4.15;;;;;;;-8.65;60.17;98853.50;5069358;28;20032;-67
2021/12/24 03:31:40;;;;;;;10.25;4.00;;;;;;;-8.45;60.01;98905.91;5070777;28;20054;-67
2021/12/24 03:34:08;;;;;;;6.55;3.20;;;;;;;-8.51;60.44;98897.38;5070835;28;20036;-66
2021/12/24 03:36:33;;;;;;;9.10;4.13;;;;;;;-8.52;60.62;98890.47;5070864;28;20036;-66
2021/12/24 03:38:59;;;;;;;7.85;4.13;;;;;;;-8.53;60.14;98880.16;5070247;28;20053;-67
2021/12/24 03:41:25;;;;;;;10.20;4.18;;;;;;;-8.49;59.91;98884.34;5070469;28;20036;-67
2021/12/24 03:43:51;;;;;;;6.43;3.60;;;;;;;-8.54;60.38;98881.03;5072547;28;20174;-66
2021/12/24 03:46:21;;;;;;;11.18;4.03;;;;;;;-8.65;60.30;98876.03;5073049;28;20121;-66
2021/12/24 03:48:57;;;;;;;8.05;4.00;;;;;;;-8.67;60.53;98877.81;5072909;28;20131;-66
2021/12/24 03:56:45;;;;;;;6.85;3.63;;;;;;;-8.59;60.27;98878.50;5074178;28;20036;-65
2021/12/24 03:59:12;;;;;;;5.97;3.50;;;;;;;-8.59;60.24;98862.94;5074374;28;20420;-66
2021/12/24 04:01:39;;;;;;;7.70;3.92;;;;;;;-8.68;60.11;98863.09;5073770;28;20363;-67
2021/12/24 04:04:05;;;;;;;11.02;4.25;;;;;;;-8.62;60.49;98880.28;5072819;28;20047;-65
2021/12/24 04:06:31;;;;;;;6.90;3.55;;;;;;;-8.63;60.39;98876.84;5073678;28;20505;-66
2021/12/24 04:08:57;;;;;;;7.40;4.07;;;;;;;-8.63;60.51;98879.44;5073793;28;20116;-66
2021/12/24 04:11:22;;;;;;;9.65;4.32;;;;;;;-8.64;60.56;98880.34;5073730;28;20112;-66
2021/12/24 04:13:48;;;;;;;8.07;4.35;;;;;;;-8.66;60.42;98867.38;5073368;28;20160;-66
2021/12/24 04:16:14;;;;;;;8.60;4.20;;;;;;;-8.67;60.28;98862.22;5074119;28;20056;-66
2021/12/24 04:18:49;;;;;;;8.50;3.92;;;;;;;-8.68;60.12;98879.53;5073794;28;20035;-65
2021/12/24 04:26:43;;;;;;;7.68;4.07;;;;;;;-8.92;60.40;98857.47;5072489;28;20047;-67
2021/12/24 04:29:09;;;;;;;10.60;4.47;;;;;;;-8.96;60.64;98860.97;5073255;28;20029;-66
2021/12/24 04:31:45;;;;;;;10.88;4.15;;;;;;;-8.99;60.82;98853.25;5073553;28;20040;-68
2021/12/24 04:34:13;;;;;;;9.38;4.05;;;;;;;-8.95;60.19;98852.31;5072418;28;20032;-67
2021/12/24 04:37:29;;;;;;;8.57;4.07;;;;;;;-9.03;60.79;98844.69;5073117;28;20032;-68
2021/12/24 04:39:46;;;;;;;13.57;3.92;;;;;;;-9.03;60.36;98843.81;5073305;28;20044;-67
2021/12/24 05:01:11;;;;;;;9.15;3.90;;;;;;;-9.34;60.77;98803.69;5072900;28;20389;-67
2021/12/24 05:02:07;;;;;;;10.65;3.92;;;;;;;-9.22;60.75;98833.72;5073140;28;20029;-67
2021/12/24 05:04:14;;;;;;;12.15;4.78;;;;;;;-9.10;60.24;98840.44;5071021;28;20379;-66
2021/12/24 05:06:49;;;;;;;9.57;4.43;;;;;;;-9.14;60.36;98841.38;5072762;28;20032;-67
2021/12/24 05:09:21;;;;;;;9.27;4.35;;;;;;;-9.09;60.41;98843.03;5073280;28;20050;-67
2021/12/24 05:11:47;;;;;;;9.38;3.90;;;;;;;-9.08;60.39;98838.69;5073051;28;20492;-66
2021/12/24 05:14:15;;;;;;;10.88;4.72;;;;;;;-9.12;60.53;98832.72;5072327;28;20036;-67
2021/12/24 05:21:54;;;;;;;10.10;4.38;;;;;;;-9.07;60.34;98798.06;5072835;28;20530;-67
2021/12/24 05:24:25;;;;;;;10.48;3.83;;;;;;;-9.05;60.62;98801.47;5072578;28;20064;-66
2021/12/24 05:26:58;;;;;;;11.70;4.85;;;;;;;-9.04;60.89;98798.00;5072139;28;20028;-70
2021/12/24 05:29:24;;;;;;;10.27;4.25;;;;;;;-9.00;60.18;98808.31;5072618;28;20480;-66
2021/12/24 05:31:50;;;;;;;11.23;4.28;;;;;;;-8.94;60.39;98825.47;5072794;28;20465;-67
2021/12/24 05:34:17;;;;;;;12.23;4.47;;;;;;;-8.91;60.46;98803.84;5071817;28;20076;-68
2021/12/24 05:36:45;;;;;;;12.40;4.88;;;;;;;-8.83;60.34;98808.00;5071701;28;20082;-66
2021/12/24 05:39:14;;;;;;;12.85;4.57;;;;;;;-8.83;60.19;98801.94;5072159;28;20452;-68
2021/12/24 05:41:40;;;;;;;12.07;4.55;;;;;;;-8.88;60.17;98802.06;5071772;28;20124;-67
2021/12/24 05:44:08;;;;;;;13.77;4.45;;;;;;;-8.89;60.60;98791.69;5071540;28;20131;-67
2021/12/24 05:46:34;;;;;;;11.15;3.97;;;;;;;-8.77;60.19;98811.38;5071752;28;20028;-63
2021/12/24 05:48:59;;;;;;;8.90;3.97;;;;;;;-8.77;60.50;98814.81;5070622;28;20039;-66
2021/12/24 05:51:25;;;;;;;10.50;5.05;;;;;;;-8.73;60.48;98813.00;5071487;28;20024;-65
2021/12/24 05:53:51;;;;;;;9.73;4.47;;;;;;;-8.71;60.02;98826.81;5071709;28;20058;-66
2021/12/24 05:56:16;;;;;;;10.52;4.57;;;;;;;-8.69;60.24;98827.63;5070283;28;20054;-66
2021/12/24 05:58:42;;;;;;;10.48;4.35;;;;;;;-8.70;60.33;98812.94;5070446;28;20952;-66
2021/12/24 06:01:08;;;;;;;12.23;5.07;;;;;;;-8.65;60.09;98814.59;5069641;28;20029;-66
2021/12/24 06:03:33;;;;;;;11.77;5.63;;;;;;;-8.58;60.34;98810.13;5071350;28;20127;-66
2021/12/24 06:05:59;;;;;;;8.38;4.03;;;;;;;-8.60;60.27;98809.31;5071076;28;20126;-67
2021/12/24 06:08:24;;;;;;;11.10;4.53;;;;;;;-8.58;60.76;98810.13;5071020;28;20024;-67
2021/12/24 06:10:50;;;;;;;11.52;5.40;;;;;;;-8.58;60.24;98812.72;5073350;28;20111;-66
2021/12/24 06:13:16;;;;;;;9.55;4.28;;;;;;;-8.46;60.12;98802.94;5077334;28;20032;-67
2021/12/24 06:15:44;;;;;;;12.93;5.20;;;;;;;-8.53;60.35;98797.91;5078501;28;20020;-67
2021/12/24 06:18:18;;;;;;;11.57;4.72;;;;;;;-8.54;60.13;98795.38;5080509;28;20161;-67
2021/12/24 06:20:43;;;;;;;10.18;4.03;;;;;;;-8.52;60.45;98801.38;5077622;28;20024;-67
2021/12/24 06:23:09;;;;;;;11.18;4.40;;;;;;;-8.43;60.67;98808.13;5081159;28;20030;-68
2021/12/24 06:25:35;;;;;;;10.32;3.63;;;;;;;-8.35;60.52;98803.59;5081184;28;20102;-68
2021/12/24 06:28:01;;;;;;;7.88;4.43;;;;;;;-8.34;60.07;98800.13;5079410;28;20461;-66
2021/12/24 06:30:29;;;;;;;11.27;4.72;;;;;;;-8.51;60.48;98770.19;5081471;28;20025;-67
2021/12/24 06:32:56;;;;;;;16.10;5.18;;;;;;;-8.23;60.14;98811.13;5058809;28;20028;-69
2021/12/24 06:35:24;;;;;;;11.35;5.18;;;;;;;-8.21;60.33;98806.75;5060832;28;20401;-68
2021/12/24 06:37:50;;;;;;;12.95;4.05;;;;;;;-8.12;60.10;98802.28;5060169;28;20032;-69
2021/12/24 06:40:16;;;;;;;10.38;4.47;;;;;;;-8.06;59.60;98804.75;5068412;28;20101;-68
2021/12/24 06:42:41;;;;;;;9.55;4.65;;;;;;;-8.04;59.90;98810.75;5079295;28;20024;-66
2021/12/24 06:45:09;;;;;;;11.25;5.15;;;;;;;-8.09;60.03;98817.81;5072209;28;20059;-67
2021/12/24 06:47:35;;;;;;;10.00;4.25;;;;;;;-8.17;60.16;98788.53;5079802;28;20032;-68
2021/12/24 06:50:01;;;;;;;9.57;3.60;;;;;;;-8.24;60.01;98770.47;5081683;28;20035;-68
2021/12/24 06:52:26;;;;;;;10.13;4.55;;;;;;;-7.97;59.83;98807.13;5078553;28;20024;-68
2021/12/24 06:54:52;;;;;;;12.25;4.57;;;;;;;-7.88;59.63;98819.06;5080936;28;20032;-67
2021/12/24 06:57:18;;;;;;;12.15;5.03;;;;;;;-7.98;59.67;98804.59;5078766;28;20112;-68
2021/12/24 06:59:44;;;;;;;13.55;5.20;;;;;;;-8.03;60.13;98799.47;5079632;28;20028;-69
2021/12/24 07:02:10;;;;;;;10.63;4.90;;;;;;;-7.90;59.81;98815.66;5080803;28;20078;-68
2021/12/24 07:04:35;;;;;;;10.55;4.90;;;;;;;-7.91;59.87;98813.09;5073724;28;20027;-68
2021/12/24 07:07:01;;;;;;;11.38;4.65;;;;;;;-7.96;59.57;98827.06;5070778;28;20036;-68
2021/12/24 07:09:27;;;;;;;9.88;4.72;;;;;;;-7.95;59.96;98818.38;5083552;28;20031;-71
2021/12/24 07:11:52;;;;;;;11.27;4.30;;;;;;;-7.98;60.27;98818.41;5091413;28;20043;-69
2021/12/24 07:14:18;;;;;;;10.25;4.97;;;;;;;-8.01;59.70;98813.28;5078340;28;20047;-70
2021/12/24 07:16:43;;;;;;;10.52;4.57;;;;;;;-8.05;60.17;98806.44;5071554;28;20044;-68
2021/12/24 07:19:09;;;;;;;9.93;3.92;;;;;;;-7.99;60.30;98816.69;5074788;28;20020;-68
2021/12/24 07:21:35;;;;;;;10.43;4.55;;;;;;;-8.06;60.52;98786.56;5076036;28;20115;-68
2021/12/24 07:24:06;;;;;;;10.15;4.53;;;;;;;-7.99;59.79;98798.53;5092431;28;20031;-69
2021/12/24 07:26:32;;;;;;;10.90;4.88;;;;;;;-7.94;60.16;98809.69;5095931;28;20552;-70
2021/12/24 07:28:58;;;;;;;11.10;4.82;;;;;;;-7.89;60.05;98804.38;5095183;28;20101;-68
2021/12/24 07:31:23;;;;;;;8.07;4.10;;;;;;;-7.83;59.55;98782.59;5095226;28;20496;-68
2021/12/24 07:33:49;;;;;;;10.88;4.65;;;;;;;-7.96;59.37;98774.22;5094851;28;20031;-69
2021/12/24 07:36:14;;;;;;;8.93;4.07;;;;;;;-7.69;59.57;98810.88;5094815;28;20039;-69
2021/12/24 07:38:40;;;;;;;9.10;4.20;;;;;;;-7.60;59.34;98794.22;5093418;28;20035;-69
2021/12/24 07:41:06;;;;;;;10.13;4.75;;;;;;;-7.51;59.01;98807.00;5092968;28;20142;-70
2021/12/24 07:43:32;;;;;;;8.80;3.65;;;;;;;-7.56;58.55;98808.84;5094672;28;20043;-71
2021/12/24 07:45:58;;;;;;;7.72;4.40;;;;;;;-7.56;58.89;98807.13;5094680;28;20039;-69
2021/12/24 07:48:28;;;;;;;10.48;4.97;;;;;;;-7.59;58.60;98806.31;5095101;28;20044;-70
2021/12/24 07:53:23;;;;;;;8.10;4.28;;;;;;;-7.72;58.59;98780.59;5094905;28;20116;-69
2021/12/24 07:55:49;;;;;;;9.55;4.40;;;;;;;-7.75;58.42;98770.28;5094499;28;20085;-69
2021/12/24 07:58:17;;;;;;;9.63;4.15;;;;;;;-7.41;58.37;98795.50;5094737;28;20032;-69
2021/12/24 08:00:44;;;;;;;9.27;4.63;;;;;;;-7.33;58.31;98817.84;5094731;28;20066;-69
2021/12/24 08:03:10;;;;;;;6.78;3.42;;;;;;;-7.28;58.17;98801.25;5094342;28;20115;-69
2021/12/24 08:05:40;;;;;;;9.82;4.75;;;;;;;-7.39;58.44;98796.31;5094368;28;20107;-69
2021/12/24 08:08:06;;;;;;;10.85;4.85;;;;;;;-7.44;58.41;98785.19;5094840;28;20040;-70
2021/12/24 08:10:34;;;;;;;9.07;5.00;;;;;;;-7.35;58.22;98791.91;5094094;28;20028;-69
2021/12/24 08:13:03;;;;;;;11.98;4.80;;;;;;;-7.28;58.06;98795.19;5094152;28;20032;-69
2021/12/24 08:15:29;;;;;;;14.63;5.10;;;;;;;-7.22;57.76;98784.66;5094787;28;20072;-69
2021/12/24 08:17:55;;;;;;;8.25;4.00;;;;;;;-7.23;57.37;98770.78;5094226;28;20039;-68
2021/12/24 08:20:26;;;;;;;12.80;5.03;;;;;;;-7.22;57.73;98767.28;5094097;28;20077;-67
2021/12/24 08:22:53;;;;;;;7.78;3.97;;;;;;;-7.08;57.77;98787.75;5094554;28;20397;-67
2021/12/24 08:25:19;;;;;;;11.10;4.00;;;;;;;-7.17;57.38;98754.19;5094312;28;20028;-66
2021/12/24 08:27:45;;;;;;;12.65;4.65;;;;;;;-7.08;57.59;98785.16;5094132;28;20028;-66
2021/12/24 08:30:11;;;;;;;18.70;5.18;;;;;;;-7.15;57.44;98780.13;5092941;28;20043;-66
2021/12/24 08:32:40;;;;;;;12.10;5.53;;;;;;;-7.09;57.81;98775.63;5094411;28;20028;-65
2021/12/24 08:35:09;;;;;;;9.13;4.63;;;;;;;-7.08;57.91;98769.53;5093975;28;20453;-65
2021/12/24 08:37:35;;;;;;;10.65;5.20;;;;;;;-7.04;57.54;98785.94;5093809;28;20028;-67
2021/12/24 08:40:01;;;;;;;10.57;5.03;;;;;;;-7.03;57.75;98768.56;5093060;28;20100;-67
2021/12/24 08:42:27;;;;;;;9.82;4.50;;;;;;;-6.94;57.49;98770.94;5094378;28;20024;-67
2021/12/24 08:44:52;;;;;;;9.25;4.68;;;;;;;-6.91;57.42;98765.66;5093453;28;20105;-66
2021/12/24 08:47:18;;;;;;;15.18;5.43;;;;;;;-7.03;57.24;98758.16;5093527;28;20481;-67
2021/12/24 08:49:44;;;;;;;12.93;4.80;;;;;;;-6.93;57.52;98757.03;5093839;28;20487;-67
2021/12/24 08:52:09;;;;;;;8.40;4.45;;;;;;;-6.97;57.66;98768.41;5093850;28;20028;-68
2021/12/24 08:54:35;;;;;;;11.05;4.68;;;;;;;-6.99;57.52;98754.56;5093450;28;20038;-68
2021/12/24 08:57:01;;;;;;;8.88;4.63;;;;;;;-6.91;57.84;98763.03;5093305;28;20399;-67
2021/12/24 08:59:27;;;;;;;11.57;5.28;;;;;;;-6.89;57.39;98769.06;5092610;28;20036;-68
2021/12/24 09:01:53;;;;;;;11.65;5.70;;;;;;;-7.08;57.39;98743.53;5092951;28;20036;-65
2021/12/24 09:04:20;;;;;;;15.77;5.13;;;;;;;-6.91;58.03;98760.44;5093396;28;20032;-68
2021/12/24 09:06:45;;;;;;;12.13;5.50;;;;;;;-6.95;57.62;98748.41;5093269;28;20052;-68
2021/12/24 09:09:11;;;;;;;16.38;5.38;;;;;;;-6.82;57.63;98759.34;5093681;28;20111;-67
2021/12/24 09:11:39;;;;;;;13.75;5.40;;;;;;;-6.74;57.32;98749.56;5092386;28;20034;-65
2021/12/24 09:14:04;;;;;;;11.82;5.45;;;;;;;-6.71;57.57;98767.69;5093122;28;20085;-68
2021/12/24 09:16:32;;;;;;;14.88;5.63;;;;;;;-6.68;57.47;98745.94;5093217;28;20469;-69
2021/12/24 09:19:05;;;;;;;15.27;6.05;;;;;;;-6.65;57.52;98735.44;5093513;28;20028;-67
2021/12/24 09:21:33;;;;;;;11.77;6.03;;;;;;;-6.57;57.47;98725.66;5093439;28;20044;-67
2021/12/24 09:23:58;;;;;;;11.95;5.32;;;;;;;-6.45;57.23;98737.47;5091981;28;20538;-67
2021/12/24 09:26:31;;;;;;;9.98;5.38;;;;;;;-6.39;56.82;98733.84;5092902;28;20028;-68
2021/12/24 09:28:58;;;;;;;14.25;5.57;;;;;;;-6.43;57.16;98729.63;5092951;28;20031;-67
2021/12/24 09:31:25;;;;;;;12.95;5.45;;;;;;;-6.45;56.97;98721.84;5093036;28;20031;-68
2021/12/24 09:33:51;;;;;;;10.32;5.25;;;;;;;-6.43;57.34;98725.25;5092627;28;20032;-68
2021/12/24 09:36:23;;;;;;;18.75;5.57;;;;;;;-6.40;57.29;98729.53;5092682;28;20035;-67
2021/12/24 09:38:49;;;;;;;13.23;6.00;;;;;;;-6.42;57.34;98711.34;5092668;28;20028;-69
2021/12/24 09:41:15;;;;;;;11.23;5.80;;;;;;;-6.38;57.32;98704.31;5074143;28;20496;-67
2021/12/24 09:43:41;;;;;;;24.63;6.10;;;;;;;-6.36;57.21;98707.72;5092525;28;20111;-66
2021/12/24 09:46:07;;;;;;;13.82;6.30;;;;;;;-6.27;56.91;98730.03;5092382;28;20115;-65
2021/12/24 09:48:32;;;;;;;16.42;6.40;;;;;;;-6.31;57.16;98698.00;5092650;28;20027;-66
2021/12/24 09:50:58;;;;;;;12.27;5.68;;;;;;;-6.26;56.69;98706.56;5092303;28;20458;-65
2021/12/24 09:53:23;;;;;;;12.95;6.22;;;;;;;-6.23;57.16;98716.88;5092312;28;20366;-66
2021/12/24 09:55:49;;;;;;;10.80;5.47;;;;;;;-6.26;56.93;98709.16;5091490;28;20495;-65
2021/12/24 09:58:14;;;;;;;14.00;6.55;;;;;;;-6.29;56.78;98711.00;5092071;28;20035;-65
2021/12/24 10:00:40;;;;;;;14.70;6.53;;;;;;;-6.26;57.26;98718.72;5091977;28;20036;-66
2021/12/24 10:03:06;;;;;;;13.35;6.70;;;;;;;-6.30;56.77;98697.09;5092421;28;20366;-67
2021/12/24 10:05:41;;;;;;;14.45;6.30;;;;;;;-6.24;56.98;98709.97;5090845;28;20036;-67
2021/12/24 10:08:07;;;;;;;;;;;;;;;-6.09;57.33;98705.16;5092558;28;20039;-67
2021/12/24 10:10:40;;;;;;;14.85;5.97;;;;;;;-6.24;56.70;98694.34;5092319;28;19916;-67
2021/12/24 10:13:39;;;;;;;15.88;4.72;;;;;;;-6.11;56.90;98704.38;5091873;28;20038;-69
2021/12/24 10:16:12;;;;;;;15.80;6.18;;;;;;;-6.18;56.64;98702.84;5092024;28;20099;-67
2021/12/24 10:18:48;;;;;;;17.52;6.50;;;;;;;-6.20;56.94;98702.91;5091986;28;20050;-68
2021/12/24 10:21:17;;;;;;;23.10;6.45;;;;;;;-6.21;56.95;98698.59;5091767;28;20028;-66
2021/12/24 10:23:54;;;;;;;13.32;6.70;;;;;;;-6.21;57.33;98698.59;5091553;28;20035;-66
2021/12/24 10:26:22;;;;;;;14.35;7.35;;;;;;;-6.22;56.69;98691.66;5092078;28;20024;-66
2021/12/24 10:29:08;;;;;;;15.07;7.20;;;;;;;-6.24;57.03;98689.13;5092371;28;20092;-67
2021/12/24 10:31:46;;;;;;;17.80;8.00;;;;;;;-6.26;56.68;98690.94;5092279;28;20559;-65
2021/12/24 10:34:13;;;;;;;15.85;7.45;;;;;;;-6.30;57.06;98694.50;5090130;28;20042;-66
2021/12/24 10:36:54;;;;;;;12.60;6.05;;;;;;;-6.22;57.09;98691.66;5092040;28;20380;-67
2021/12/24 10:39:34;;;;;;;16.17;6.15;;;;;;;-6.26;56.54;98688.31;5090380;28;20055;-65
2021/12/24 10:42:02;;;;;;;14.32;6.80;;;;;;;-6.26;56.89;98687.44;5091058;28;20024;-67
2021/12/24 10:44:34;;;;;;;15.90;6.75;;;;;;;-6.26;56.74;98690.06;5091297;28;20051;-68
2021/12/24 10:47:07;;;;;;;15.82;6.53;;;;;;;-6.20;56.93;98695.94;5091642;28;20538;-65
2021/12/24 10:52:16;;;;;;;15.27;7.03;;;;;;;-6.49;57.07;98669.03;5090785;28;20020;-66
2021/12/24 10:55:00;;;;;;;15.65;6.95;;;;;;;-6.32;57.30;98692.84;5091614;28;20032;-64
2021/12/24 10:57:29;;;;;;;17.85;6.32;;;;;;;-6.38;57.16;98680.84;5091856;28;20049;-66
2021/12/24 10:59:59;;;;;;;16.08;7.35;;;;;;;-6.40;56.81;98687.88;5091460;28;20085;-66
2021/12/24 11:02:31;;;;;;;18.08;7.50;;;;;;;-6.41;56.83;98697.41;5091147;28;20419;-66
2021/12/24 11:04:57;;;;;;;11.60;6.05;;;;;;;-6.37;56.75;98700.78;5090201;28;20020;-65
2021/12/24 11:07:34;;;;;;;17.17;7.55;;;;;;;-6.38;56.65;98681.72;5091327;28;20115;-65
2021/12/24 11:10:15;;;;;;;21.58;7.35;;;;;;;-6.36;57.03;98676.47;5089436;28;20043;-65
2021/12/24 11:12:45;;;;;;;17.65;7.20;;;;;;;-6.39;56.77;98672.22;5091030;28;20043;-65
2021/12/24 11:15:18;;;;;;;15.10;7.30;;;;;;;-6.35;57.29;98675.56;5089786;28;20047;-65
2021/12/24 11:17:44;;;;;;;16.52;7.15;;;;;;;-6.38;56.42;98671.31;5091540;28;20081;-67
2021/12/24 11:20:10;;;;;;;14.90;7.18;;;;;;;-6.43;57.02;98673.19;5091049;28;20106;-67
2021/12/24 11:22:55;;;;;;;16.45;7.90;;;;;;;-6.47;56.96;98676.78;5091301;28;20032;-67
2021/12/24 11:25:23;;;;;;;13.02;6.68;;;;;;;-6.51;56.96;98677.78;5091548;28;20031;-65
2021/12/24 11:27:49;;;;;;;13.93;7.13;;;;;;;-6.52;57.06;98676.91;5089664;28;20128;-68
2021/12/24 11:30:15;;;;;;;16.20;7.30;;;;;;;-6.53;56.79;98664.78;5090465;28;20043;-66
2021/12/24 11:32:42;;;;;;;13.43;6.53;;;;;;;-6.53;56.81;98659.56;5090352;28;20385;-68
2021/12/24 11:35:09;;;;;;;17.02;7.13;;;;;;;-6.61;57.05;98661.56;5081885;28;20542;-67
2021/12/24 11:37:35;;;;;;;17.45;7.32;;;;;;;-6.62;57.30;98662.47;5079201;28;20153;-67
2021/12/24 11:40:04;;;;;;;17.98;7.40;;;;;;;-6.63;57.10;98658.16;5082640;28;20044;-67
2021/12/24 11:42:33;;;;;;;14.93;7.43;;;;;;;-6.68;56.81;98647.88;5090674;28;20059;-66
2021/12/24 11:45:00;;;;;;;12.20;6.07;;;;;;;-6.82;56.72;98630.03;5081767;28;20115;-66
2021/12/24 11:47:26;;;;;;;19.90;8.07;;;;;;;-6.84;57.17;98655.28;5080006;28;20085;-67
2021/12/24 11:49:52;;;;;;;20.83;7.28;;;;;;;-6.85;57.51;98656.16;5081281;28;20028;-67
2021/12/24 11:52:18;;;;;;;16.83;7.15;;;;;;;-6.92;57.64;98671.09;5082397;28;20074;-66
2021/12/24 11:54:44;;;;;;;18.48;7.50;;;;;;;-6.91;57.73;98666.75;5079477;28;20064;-68
2021/12/24 11:57:22;;;;;;;18.77;7.68;;;;;;;-6.90;57.73;98673.66;5080420;28;20028;-68
2021/12/24 11:59:47;;;;;;;16.30;7.32;;;;;;;-6.95;57.72;98672.94;5080335;28;20028;-68
2021/12/24 12:02:36;;;;;;;15.35;7.10;;;;;;;-6.92;57.96;98675.47;5078985;28;20027;-67
2021/12/24 12:05:15;;;;;;;16.02;7.20;;;;;;;-6.90;57.69;98667.59;5085733;28;20020;-68
2021/12/24 12:07:41;;;;;;;17.00;7.50;;;;;;;-6.96;57.67;98655.63;5088650;28;20104;-69
2021/12/24 12:10:07;;;;;;;14.02;7.22;;;;;;;-6.90;57.53;98668.47;5077900;28;20095;-68
2021/12/24 12:12:38;;;;;;;16.05;7.53;;;;;;;-6.90;57.75;98670.19;5072774;28;20043;-68
2021/12/24 12:15:31;;;;;;;17.25;7.22;;;;;;;-6.93;57.95;98660.75;5076889;28;20038;-68
2021/12/24 12:18:04;;;;;;;15.10;6.70;;;;;;;-6.98;58.04;98660.03;5080478;28;20506;-68
2021/12/24 12:20:44;;;;;;;14.55;7.35;;;;;;;-7.18;57.88;98626.75;5079610;28;20035;-68
2021/12/24 12:23:30;;;;;;;17.75;7.75;;;;;;;-6.99;58.04;98664.38;5081294;28;20028;-66
2021/12/24 12:25:55;;;;;;;18.85;8.40;;;;;;;-6.95;57.44;98657.34;5082141;28;20103;-69
2021/12/24 12:28:26;;;;;;;21.35;9.38;;;;;;;-6.98;57.97;98655.66;5081930;28;20579;-70
2021/12/24 12:30:53;;;;;;;18.38;7.72;;;;;;;-6.94;57.69;98656.44;5083536;28;20024;-70
2021/12/24 12:33:34;;;;;;;17.33;7.25;;;;;;;-6.99;57.67;98659.16;5084462;28;20024;-69
2021/12/24 12:36:02;;;;;;;16.95;8.32;;;;;;;-7.04;57.77;98649.78;5083381;28;20055;-69
2021/12/24 12:38:33;;;;;;;19.27;8.02;;;;;;;-7.19;57.84;98625.03;5080475;28;20029;-68
2021/12/24 12:41:24;;;;;;;22.50;8.27;;;;;;;-7.02;58.29;98653.19;5082845;28;20036;-67
2021/12/24 12:43:51;;;;;;;17.10;7.60;;;;;;;-7.06;58.02;98658.47;5080569;28;20020;-70
2021/12/24 12:46:25;;;;;;;17.45;7.85;;;;;;;-7.05;58.26;98659.34;5082588;28;20063;-70
2021/12/24 12:48:53;;;;;;;15.73;7.70;;;;;;;-7.14;57.90;98639.63;5080888;28;20044;-69
2021/12/24 12:51:20;;;;;;;17.42;7.68;;;;;;;-7.07;58.18;98654.16;5082634;28;20022;-71
2021/12/24 12:53:48;;;;;;;16.20;7.38;;;;;;;-7.11;58.22;98639.53;5079843;28;20034;-70
2021/12/24 12:56:30;;;;;;;19.25;7.80;;;;;;;-7.11;57.98;98649.94;5083203;28;20028;-70
2021/12/24 12:58:56;;;;;;;20.23;7.95;;;;;;;-7.13;58.23;98654.34;5081896;28;20036;-72
2021/12/24 13:01:21;;;;;;;18.20;7.88;;;;;;;-7.16;58.09;98644.03;5082245;28;20032;-67
2021/12/24 13:04:08;;;;;;;18.23;8.50;;;;;;;-7.15;58.29;98648.31;5084132;28;20465;-69
2021/12/24 13:06:43;;;;;;;20.35;8.23;;;;;;;-7.21;58.30;98638.09;5081535;28;20708;-69
2021/12/24 13:09:10;;;;;;;12.23;5.55;;;;;;;-7.20;58.37;98645.00;5079938;28;20393;-68
2021/12/24 13:11:39;;;;;;;21.83;8.40;;;;;;;-7.22;58.36;98639.84;5082457;28;20119;-71